Flight Track Log - Related Links

Times and Time Zones

All times are in EDT time to prevent confusion due to time zone crossing. See the SWA22 flight status page for this flight to view local times or setup timezone preferences in your user account.

Time Position Orientation Groundspeed Altitude Reporting Facility
EDT Latitude Longitude Course Direction KTS MPH feet Rate Location/Type
Fri 12:39:53 PM 29.6583 -95.2647 North 154 177 800  Level Houston Center
Fri 12:40:43 PM 29.7000 -95.2597 North 200 230 2,400 2,024 Climbing Houston Center
Fri 12:41:16 PM 29.7219 -95.2661 346° North 227 261 3,600 2,656 Climbing Houston Center
Fri 12:41:44 PM 29.7628 -95.2808 343° North 259 298 5,100 3,238 Climbing Houston Center
Fri 12:42:19 PM 29.8025 -95.2958 342° North 244 281 7,000 3,278 Climbing Houston Center
Fri 12:43:21 PM 29.8753 -95.3194 344° North 266 306 10,400 2,516 Climbing Houston Center
Fri 12:44:23 PM 29.9658 -95.3419 348° North 321 369 12,200 2,274 Climbing Houston Center
Fri 12:45:25 PM 30.0556 -95.3619 349° North 346 398 15,100 2,806 Climbing Houston Center
Fri 12:46:27 PM 30.1525 -95.3850 348° North 354 407 18,000 2,661 Climbing Houston Center
Fri 12:47:29 PM 30.2711 -95.4136 348° North 361 415 20,600 2,323 Climbing Houston Center
Fri 12:48:31 PM 30.3758 -95.4386 348° North 379 436 22,800 1,984 Climbing Houston Center
Fri 12:49:33 PM 30.4836 -95.4639 349° North 393 452 24,700 1,968 Climbing Houston Center
Fri 12:50:36 PM 30.5925 -95.4894 349° North 400 460 26,900 2,112 Climbing Houston Center
Fri 12:51:38 PM 30.7094 -95.5153 349° North 394 453 29,100 2,032 Climbing Houston Center
Fri 12:52:40 PM 30.8167 -95.5386 349° North 391 450 31,100 1,935 Climbing Houston Center
Fri 12:53:42 PM 30.9217 -95.5625 349° North 383 441 33,100 1,403 Climbing Houston Center
Fri 12:54:44 PM 31.0250 -95.5861 349° North 376 433 34,000 435 Climbing Houston Center
Fri 12:55:46 PM 31.1286 -95.6106 349° North 376 433 34,000 -291 Level Houston Center
Fri 12:56:27 PM 31.2236 -95.6303 350° North 383 441 33,500 -891 Descending Fort Worth Center
Fri 12:57:27 PM 31.3264 -95.6528 349° North 383 441 32,500 -950 Descending Fort Worth Center
Fri 12:58:27 PM 31.4272 -95.7067 335° Northwest 390 449 31,600 -950 Descending Fort Worth Center
Fri 12:59:27 PM 31.5200 -95.7708 329° Northwest 390 449 30,600 -1,150 Descending Fort Worth Center
Fri 01:00:27 PM 31.6169 -95.8350 331° Northwest 397 457 29,300 -1,950 Descending Fort Worth Center
Fri 01:01:27 PM 31.7136 -95.9042 329° Northwest 407 468 26,700 -2,600 Descending Fort Worth Center
Fri 01:02:27 PM 31.8019 -95.9589 332° Northwest 385 443 24,100 -2,250 Descending Fort Worth Center
Fri 01:03:27 PM 31.8842 -96.0164 329° Northwest 373 429 22,200 -2,150 Descending Fort Worth Center
Fri 01:04:27 PM 31.9703 -96.0739 330° Northwest 372 428 19,800 -2,200 Descending Fort Worth Center
Fri 01:05:27 PM 32.0564 -96.1289 332° Northwest 358 412 17,800 -2,050 Descending Fort Worth Center
Fri 01:06:27 PM 32.1364 -96.1842 330° Northwest 342 394 15,700 -2,250 Descending Fort Worth Center
Fri 01:07:27 PM 32.2247 -96.2419 331° Northwest 337 388 13,300 -2,150 Descending Fort Worth Center
Fri 01:08:27 PM 32.2939 -96.2828 333° Northwest 323 372 11,400 -1,600 Descending Fort Worth Center
Fri 01:09:27 PM 32.3758 -96.3336 332° Northwest 308 354 10,100 -1,200 Descending Fort Worth Center
Fri 01:10:27 PM 32.4367 -96.3697 333° Northwest 277 319 9,000 -800 Descending Fort Worth Center
Fri 01:11:27 PM 32.5100 -96.4156 332° Northwest 277 319 8,500 -700 Descending Fort Worth Center
Fri 01:12:27 PM 32.5731 -96.4519 334° Northwest 272 313 7,600 -1,000 Descending Fort Worth Center
Fri 01:13:27 PM 32.6464 -96.4956 333° Northwest 267 307 6,500 -1,000 Descending Fort Worth Center
Fri 01:14:27 PM 32.7031 -96.5444 324° Northwest 273 314 5,600 -750 Descending Fort Worth Center
Fri 01:15:27 PM 32.7639 -96.6106 318° Northwest 273 314 5,000 -300 Descending Fort Worth Center
Fri 01:16:27 PM 32.8144 -96.6619 319° Northwest 273 314 5,000 -438 Level Fort Worth Center
Fri 01:17:03 PM 32.8500 -96.7000 318° Northwest 275 316 4,300 -1,059 Descending Dallas / Fort Worth TRACON
Fri 01:18:09 PM 32.9000 -96.7833 306° West 254 292 3,200 -650 Descending Dallas / Fort Worth TRACON
Fri 01:19:03 PM 32.9333 -96.8333 308° West 217 250 3,000 -444 Descending Dallas / Fort Worth TRACON
Fri 01:19:57 PM 32.9167 -96.8833 248° West 192 221 2,400 -900 Descending Dallas / Fort Worth TRACON
Fri 01:21:03 PM 32.8833 -96.8833 180° South 142 163 1,200 -1,091 Descending Dallas / Fort Worth TRACON
Fri 01:24:00 PM 32.8471 -96.8518 151° Southeast  Level Estimated

Login

Don't have an account? Register now (free) for customized features, flight alerts, and more!